sensor_id;sensor_type;location;lat;lon;timestamp;P1;durP1;ratioP1;P2;durP2;ratioP2
751;SDS011;360;48.764;9.164;2023-04-16T00:02:03;6.73;;;4.80;;
751;SDS011;360;48.764;9.164;2023-04-16T00:04:30;5.67;;;3.67;;
751;SDS011;360;48.764;9.164;2023-04-16T00:06:58;5.00;;;3.23;;
751;SDS011;360;48.764;9.164;2023-04-16T00:09:25;3.97;;;2.67;;
751;SDS011;360;48.764;9.164;2023-04-16T00:11:52;8.23;;;4.80;;
751;SDS011;360;48.764;9.164;2023-04-16T00:14:19;5.47;;;4.43;;
751;SDS011;360;48.764;9.164;2023-04-16T00:16:46;5.47;;;3.70;;
751;SDS011;360;48.764;9.164;2023-04-16T00:19:14;6.07;;;3.23;;
751;SDS011;360;48.764;9.164;2023-04-16T00:21:42;5.07;;;3.30;;
751;SDS011;360;48.764;9.164;2023-04-16T00:24:09;5.73;;;3.63;;
751;SDS011;360;48.764;9.164;2023-04-16T00:26:36;6.83;;;4.70;;
751;SDS011;360;48.764;9.164;2023-04-16T00:29:05;6.70;;;4.07;;
751;SDS011;360;48.764;9.164;2023-04-16T00:31:32;6.53;;;4.40;;
751;SDS011;360;48.764;9.164;2023-04-16T00:33:59;8.77;;;4.50;;
751;SDS011;360;48.764;9.164;2023-04-16T00:36:28;4.20;;;3.57;;
751;SDS011;360;48.764;9.164;2023-04-16T00:38:55;5.03;;;3.97;;
751;SDS011;360;48.764;9.164;2023-04-16T00:41:22;5.30;;;3.40;;
751;SDS011;360;48.764;9.164;2023-04-16T00:43:50;6.73;;;3.03;;
751;SDS011;360;48.764;9.164;2023-04-16T00:46:17;4.67;;;3.33;;
751;SDS011;360;48.764;9.164;2023-04-16T00:48:45;5.03;;;3.80;;
751;SDS011;360;48.764;9.164;2023-04-16T00:51:12;6.50;;;3.80;;
751;SDS011;360;48.764;9.164;2023-04-16T00:53:41;5.07;;;3.50;;
751;SDS011;360;48.764;9.164;2023-04-16T00:56:09;5.23;;;3.67;;
751;SDS011;360;48.764;9.164;2023-04-16T00:58:36;5.13;;;3.90;;
751;SDS011;360;48.764;9.164;2023-04-16T01:01:04;6.20;;;3.33;;
751;SDS011;360;48.764;9.164;2023-04-16T01:03:33;5.20;;;4.13;;
751;SDS011;360;48.764;9.164;2023-04-16T01:06:03;4.93;;;4.00;;
751;SDS011;360;48.764;9.164;2023-04-16T01:08:31;6.37;;;3.00;;
751;SDS011;360;48.764;9.164;2023-04-16T01:10:59;5.90;;;3.93;;
751;SDS011;360;48.764;9.164;2023-04-16T01:13:26;6.70;;;3.93;;
751;SDS011;360;48.764;9.164;2023-04-16T01:15:53;5.30;;;3.40;;
751;SDS011;360;48.764;9.164;2023-04-16T01:18:21;5.23;;;3.10;;
751;SDS011;360;48.764;9.164;2023-04-16T01:20:49;7.03;;;3.60;;
751;SDS011;360;48.764;9.164;2023-04-16T01:23:17;7.20;;;4.17;;
751;SDS011;360;48.764;9.164;2023-04-16T01:25:44;5.27;;;3.43;;
751;SDS011;360;48.764;9.164;2023-04-16T01:28:13;3.70;;;2.77;;
751;SDS011;360;48.764;9.164;2023-04-16T01:30:40;6.33;;;3.73;;
751;SDS011;360;48.764;9.164;2023-04-16T01:33:09;4.10;;;3.20;;
751;SDS011;360;48.764;9.164;2023-04-16T01:35:36;3.93;;;2.77;;
751;SDS011;360;48.764;9.164;2023-04-16T01:38:06;6.87;;;3.27;;
751;SDS011;360;48.764;9.164;2023-04-16T01:40:33;4.10;;;2.83;;
751;SDS011;360;48.764;9.164;2023-04-16T01:43:00;5.17;;;3.03;;
751;SDS011;360;48.764;9.164;2023-04-16T01:45:28;4.30;;;2.93;;
751;SDS011;360;48.764;9.164;2023-04-16T01:47:56;4.00;;;3.03;;
751;SDS011;360;48.764;9.164;2023-04-16T01:50:23;4.73;;;3.00;;
751;SDS011;360;48.764;9.164;2023-04-16T01:52:51;4.00;;;2.53;;
751;SDS011;360;48.764;9.164;2023-04-16T01:55:19;3.90;;;2.50;;
751;SDS011;360;48.764;9.164;2023-04-16T01:57:46;4.37;;;3.27;;
751;SDS011;360;48.764;9.164;2023-04-16T02:00:13;4.10;;;2.50;;
751;SDS011;360;48.764;9.164;2023-04-16T02:02:40;4.63;;;2.93;;
751;SDS011;360;48.764;9.164;2023-04-16T02:05:08;3.77;;;2.40;;
751;SDS011;360;48.764;9.164;2023-04-16T02:07:35;4.03;;;3.00;;
751;SDS011;360;48.764;9.164;2023-04-16T02:10:02;4.43;;;2.50;;
751;SDS011;360;48.764;9.164;2023-04-16T02:12:30;3.50;;;2.60;;
751;SDS011;360;48.764;9.164;2023-04-16T02:14:58;3.80;;;2.07;;
751;SDS011;360;48.764;9.164;2023-04-16T02:17:25;4.10;;;2.57;;
751;SDS011;360;48.764;9.164;2023-04-16T02:19:53;4.50;;;3.17;;
751;SDS011;360;48.764;9.164;2023-04-16T02:22:20;5.37;;;3.07;;
751;SDS011;360;48.764;9.164;2023-04-16T02:24:47;4.30;;;2.37;;
751;SDS011;360;48.764;9.164;2023-04-16T02:27:15;4.27;;;2.80;;
751;SDS011;360;48.764;9.164;2023-04-16T02:29:43;4.50;;;2.90;;
751;SDS011;360;48.764;9.164;2023-04-16T02:32:10;4.70;;;3.03;;
751;SDS011;360;48.764;9.164;2023-04-16T02:34:37;6.70;;;4.10;;
751;SDS011;360;48.764;9.164;2023-04-16T02:37:05;7.07;;;4.20;;
751;SDS011;360;48.764;9.164;2023-04-16T02:39:32;3.30;;;2.23;;
751;SDS011;360;48.764;9.164;2023-04-16T02:41:59;4.60;;;2.67;;
751;SDS011;360;48.764;9.164;2023-04-16T02:44:26;5.60;;;2.30;;
751;SDS011;360;48.764;9.164;2023-04-16T02:46:55;2.90;;;2.50;;
751;SDS011;360;48.764;9.164;2023-04-16T02:49:22;4.13;;;2.70;;
751;SDS011;360;48.764;9.164;2023-04-16T02:51:49;2.70;;;1.93;;
751;SDS011;360;48.764;9.164;2023-04-16T02:54:16;5.50;;;3.70;;
751;SDS011;360;48.764;9.164;2023-04-16T02:56:43;3.90;;;0.70;;
751;SDS011;360;48.764;9.164;2023-04-16T02:59:10;5.00;;;2.50;;
751;SDS011;360;48.764;9.164;2023-04-16T03:01:37;5.10;;;3.13;;
751;SDS011;360;48.764;9.164;2023-04-16T03:04:06;3.70;;;2.70;;
751;SDS011;360;48.764;9.164;2023-04-16T03:06:33;3.73;;;2.30;;
751;SDS011;360;48.764;9.164;2023-04-16T03:09:00;2.53;;;2.10;;
751;SDS011;360;48.764;9.164;2023-04-16T03:11:27;1.93;;;1.53;;
751;SDS011;360;48.764;9.164;2023-04-16T03:13:54;3.57;;;1.90;;
751;SDS011;360;48.764;9.164;2023-04-16T03:16:21;2.50;;;2.20;;
751;SDS011;360;48.764;9.164;2023-04-16T03:18:49;1.40;;;1.30;;
751;SDS011;360;48.764;9.164;2023-04-16T03:21:17;3.00;;;1.80;;
751;SDS011;360;48.764;9.164;2023-04-16T03:23:44;3.60;;;2.00;;
751;SDS011;360;48.764;9.164;2023-04-16T03:26:11;1.87;;;1.77;;
751;SDS011;360;48.764;9.164;2023-04-16T03:28:38;3.57;;;1.23;;
751;SDS011;360;48.764;9.164;2023-04-16T03:31:06;2.30;;;1.67;;
751;SDS011;360;48.764;9.164;2023-04-16T03:33:33;4.23;;;2.73;;
751;SDS011;360;48.764;9.164;2023-04-16T03:36:00;3.43;;;2.50;;
751;SDS011;360;48.764;9.164;2023-04-16T03:38:28;4.47;;;3.20;;
751;SDS011;360;48.764;9.164;2023-04-16T03:40:55;2.17;;;1.97;;
751;SDS011;360;48.764;9.164;2023-04-16T03:43:23;2.47;;;1.50;;
751;SDS011;360;48.764;9.164;2023-04-16T03:45:50;3.60;;;2.60;;
751;SDS011;360;48.764;9.164;2023-04-16T03:48:17;2.30;;;1.40;;
751;SDS011;360;48.764;9.164;2023-04-16T03:50:44;2.70;;;1.87;;
751;SDS011;360;48.764;9.164;2023-04-16T03:53:12;3.27;;;2.23;;
751;SDS011;360;48.764;9.164;2023-04-16T03:55:41;3.30;;;2.40;;
751;SDS011;360;48.764;9.164;2023-04-16T03:58:08;2.93;;;1.63;;
751;SDS011;360;48.764;9.164;2023-04-16T04:00:35;2.70;;;1.83;;
751;SDS011;360;48.764;9.164;2023-04-16T04:03:02;2.70;;;1.57;;
751;SDS011;360;48.764;9.164;2023-04-16T04:05:29;4.33;;;2.63;;
751;SDS011;360;48.764;9.164;2023-04-16T04:07:56;4.83;;;3.77;;
751;SDS011;360;48.764;9.164;2023-04-16T04:10:24;2.50;;;1.87;;
751;SDS011;360;48.764;9.164;2023-04-16T04:12:52;4.47;;;2.83;;
751;SDS011;360;48.764;9.164;2023-04-16T04:15:19;4.00;;;1.90;;
751;SDS011;360;48.764;9.164;2023-04-16T04:17:46;1.80;;;1.70;;
751;SDS011;360;48.764;9.164;2023-04-16T04:20:14;3.33;;;2.60;;
751;SDS011;360;48.764;9.164;2023-04-16T04:22:41;7.57;;;3.13;;
751;SDS011;360;48.764;9.164;2023-04-16T04:25:08;2.40;;;1.70;;
751;SDS011;360;48.764;9.164;2023-04-16T04:27:36;2.60;;;2.00;;
751;SDS011;360;48.764;9.164;2023-04-16T04:30:05;4.00;;;2.53;;
751;SDS011;360;48.764;9.164;2023-04-16T04:32:32;2.50;;;2.30;;
751;SDS011;360;48.764;9.164;2023-04-16T04:35:00;3.93;;;2.53;;
751;SDS011;360;48.764;9.164;2023-04-16T04:37:27;5.20;;;1.83;;
751;SDS011;360;48.764;9.164;2023-04-16T04:39:54;3.30;;;1.93;;
751;SDS011;360;48.764;9.164;2023-04-16T04:42:21;3.13;;;1.63;;
751;SDS011;360;48.764;9.164;2023-04-16T04:44:48;2.10;;;1.30;;
751;SDS011;360;48.764;9.164;2023-04-16T04:47:17;2.80;;;1.80;;
751;SDS011;360;48.764;9.164;2023-04-16T04:49:44;2.73;;;1.40;;
751;SDS011;360;48.764;9.164;2023-04-16T04:52:11;3.83;;;1.53;;
751;SDS011;360;48.764;9.164;2023-04-16T04:54:38;2.60;;;2.07;;
751;SDS011;360;48.764;9.164;2023-04-16T04:57:06;2.90;;;1.97;;
751;SDS011;360;48.764;9.164;2023-04-16T04:59:33;4.60;;;2.40;;
751;SDS011;360;48.764;9.164;2023-04-16T05:02:00;2.00;;;1.57;;
751;SDS011;360;48.764;9.164;2023-04-16T05:04:29;3.40;;;2.10;;
751;SDS011;360;48.764;9.164;2023-04-16T05:06:56;3.90;;;2.70;;
751;SDS011;360;48.764;9.164;2023-04-16T05:09:23;3.53;;;3.23;;
751;SDS011;360;48.764;9.164;2023-04-16T05:11:50;2.50;;;1.40;;
751;SDS011;360;48.764;9.164;2023-04-16T05:14:17;2.97;;;1.43;;
751;SDS011;360;48.764;9.164;2023-04-16T05:16:44;3.40;;;2.60;;
751;SDS011;360;48.764;9.164;2023-04-16T05:19:11;2.30;;;1.70;;
751;SDS011;360;48.764;9.164;2023-04-16T05:21:40;4.23;;;1.67;;
751;SDS011;360;48.764;9.164;2023-04-16T05:24:07;1.57;;;1.47;;
751;SDS011;360;48.764;9.164;2023-04-16T05:26:34;3.77;;;1.50;;
751;SDS011;360;48.764;9.164;2023-04-16T05:29:01;4.30;;;1.33;;
751;SDS011;360;48.764;9.164;2023-04-16T05:31:28;3.70;;;3.27;;
751;SDS011;360;48.764;9.164;2023-04-16T05:33:55;2.87;;;1.90;;
751;SDS011;360;48.764;9.164;2023-04-16T05:36:22;2.90;;;2.20;;
751;SDS011;360;48.764;9.164;2023-04-16T05:38:51;2.63;;;1.70;;
751;SDS011;360;48.764;9.164;2023-04-16T05:41:18;3.40;;;2.63;;
751;SDS011;360;48.764;9.164;2023-04-16T05:43:45;2.93;;;2.57;;
751;SDS011;360;48.764;9.164;2023-04-16T05:46:12;5.70;;;2.40;;
751;SDS011;360;48.764;9.164;2023-04-16T05:48:39;2.67;;;2.37;;
751;SDS011;360;48.764;9.164;2023-04-16T05:51:06;5.00;;;3.23;;
751;SDS011;360;48.764;9.164;2023-04-16T05:53:33;5.60;;;3.23;;
751;SDS011;360;48.764;9.164;2023-04-16T05:56:02;2.60;;;1.33;;
751;SDS011;360;48.764;9.164;2023-04-16T05:58:29;4.47;;;2.73;;
751;SDS011;360;48.764;9.164;2023-04-16T06:00:56;4.43;;;2.20;;
751;SDS011;360;48.764;9.164;2023-04-16T06:03:24;8.67;;;5.20;;
751;SDS011;360;48.764;9.164;2023-04-16T06:05:51;6.53;;;4.03;;
751;SDS011;360;48.764;9.164;2023-04-16T06:08:18;3.53;;;2.50;;
751;SDS011;360;48.764;9.164;2023-04-16T06:10:45;5.10;;;3.87;;
751;SDS011;360;48.764;9.164;2023-04-16T06:13:14;2.80;;;2.10;;
751;SDS011;360;48.764;9.164;2023-04-16T06:15:41;6.83;;;4.50;;
751;SDS011;360;48.764;9.164;2023-04-16T06:18:08;4.83;;;4.07;;
751;SDS011;360;48.764;9.164;2023-04-16T06:20:35;3.83;;;3.10;;
751;SDS011;360;48.764;9.164;2023-04-16T06:23:02;9.90;;;4.23;;
751;SDS011;360;48.764;9.164;2023-04-16T06:25:29;10.47;;;4.87;;
751;SDS011;360;48.764;9.164;2023-04-16T06:27:56;8.47;;;4.70;;
751;SDS011;360;48.764;9.164;2023-04-16T06:30:25;7.23;;;4.10;;
751;SDS011;360;48.764;9.164;2023-04-16T06:32:52;9.77;;;5.80;;
751;SDS011;360;48.764;9.164;2023-04-16T06:35:19;5.13;;;3.83;;
751;SDS011;360;48.764;9.164;2023-04-16T06:37:46;4.77;;;3.30;;
751;SDS011;360;48.764;9.164;2023-04-16T06:40:13;5.33;;;3.80;;
751;SDS011;360;48.764;9.164;2023-04-16T06:42:41;5.90;;;2.93;;
751;SDS011;360;48.764;9.164;2023-04-16T06:45:08;6.10;;;4.60;;
751;SDS011;360;48.764;9.164;2023-04-16T06:47:36;8.17;;;4.83;;
751;SDS011;360;48.764;9.164;2023-04-16T06:50:04;6.47;;;3.90;;
751;SDS011;360;48.764;9.164;2023-04-16T06:52:31;6.20;;;4.30;;
751;SDS011;360;48.764;9.164;2023-04-16T06:54:58;11.30;;;4.83;;
751;SDS011;360;48.764;9.164;2023-04-16T06:57:25;4.13;;;3.43;;
751;SDS011;360;48.764;9.164;2023-04-16T06:59:53;6.90;;;4.50;;
751;SDS011;360;48.764;9.164;2023-04-16T07:02:20;8.03;;;4.00;;
751;SDS011;360;48.764;9.164;2023-04-16T07:04:48;9.93;;;4.97;;
751;SDS011;360;48.764;9.164;2023-04-16T07:07:16;4.90;;;3.07;;
751;SDS011;360;48.764;9.164;2023-04-16T07:09:43;10.33;;;4.73;;
751;SDS011;360;48.764;9.164;2023-04-16T07:12:10;8.57;;;5.47;;
751;SDS011;360;48.764;9.164;2023-04-16T07:14:37;7.07;;;5.37;;
751;SDS011;360;48.764;9.164;2023-04-16T07:17:05;7.30;;;4.23;;
751;SDS011;360;48.764;9.164;2023-04-16T07:19:32;8.33;;;5.10;;
751;SDS011;360;48.764;9.164;2023-04-16T07:22:00;11.57;;;7.20;;
751;SDS011;360;48.764;9.164;2023-04-16T07:24:28;13.00;;;5.20;;
751;SDS011;360;48.764;9.164;2023-04-16T07:26:55;6.23;;;4.43;;
751;SDS011;360;48.764;9.164;2023-04-16T07:29:22;7.67;;;4.23;;
751;SDS011;360;48.764;9.164;2023-04-16T07:31:49;7.70;;;4.50;;
751;SDS011;360;48.764;9.164;2023-04-16T07:34:16;7.93;;;4.00;;
751;SDS011;360;48.764;9.164;2023-04-16T07:36:43;8.80;;;4.30;;
751;SDS011;360;48.764;9.164;2023-04-16T07:39:11;6.43;;;4.87;;
751;SDS011;360;48.764;9.164;2023-04-16T07:41:39;9.77;;;6.27;;
751;SDS011;360;48.764;9.164;2023-04-16T07:44:06;7.20;;;4.73;;
751;SDS011;360;48.764;9.164;2023-04-16T07:46:33;8.50;;;3.80;;
751;SDS011;360;48.764;9.164;2023-04-16T07:49:00;7.87;;;4.90;;
751;SDS011;360;48.764;9.164;2023-04-16T07:51:27;10.40;;;4.23;;
751;SDS011;360;48.764;9.164;2023-04-16T07:53:55;5.50;;;4.47;;
751;SDS011;360;48.764;9.164;2023-04-16T07:56:23;8.80;;;5.77;;
751;SDS011;360;48.764;9.164;2023-04-16T07:58:51;6.63;;;4.33;;
751;SDS011;360;48.764;9.164;2023-04-16T08:01:18;8.53;;;5.20;;
751;SDS011;360;48.764;9.164;2023-04-16T08:03:45;5.90;;;4.70;;
751;SDS011;360;48.764;9.164;2023-04-16T08:06:12;6.17;;;3.90;;
751;SDS011;360;48.764;9.164;2023-04-16T08:08:39;5.33;;;2.47;;
751;SDS011;360;48.764;9.164;2023-04-16T08:11:07;6.70;;;3.67;;
751;SDS011;360;48.764;9.164;2023-04-16T08:13:35;10.40;;;5.37;;
751;SDS011;360;48.764;9.164;2023-04-16T08:16:03;5.87;;;4.10;;
751;SDS011;360;48.764;9.164;2023-04-16T08:18:30;8.00;;;4.43;;
751;SDS011;360;48.764;9.164;2023-04-16T08:20:57;8.40;;;4.67;;
751;SDS011;360;48.764;9.164;2023-04-16T08:23:24;6.27;;;3.97;;
751;SDS011;360;48.764;9.164;2023-04-16T08:25:51;7.20;;;4.33;;
751;SDS011;360;48.764;9.164;2023-04-16T08:28:18;6.67;;;4.30;;
751;SDS011;360;48.764;9.164;2023-04-16T08:30:47;5.47;;;4.63;;
751;SDS011;360;48.764;9.164;2023-04-16T08:33:14;4.30;;;3.60;;
751;SDS011;360;48.764;9.164;2023-04-16T08:35:41;8.40;;;4.33;;
751;SDS011;360;48.764;9.164;2023-04-16T08:38:08;9.23;;;3.77;;
751;SDS011;360;48.764;9.164;2023-04-16T08:40:37;6.97;;;5.03;;
751;SDS011;360;48.764;9.164;2023-04-16T08:43:05;7.27;;;4.40;;
751;SDS011;360;48.764;9.164;2023-04-16T08:45:35;6.77;;;4.27;;
751;SDS011;360;48.764;9.164;2023-04-16T08:48:05;9.23;;;4.00;;
751;SDS011;360;48.764;9.164;2023-04-16T08:50:32;13.17;;;6.40;;
751;SDS011;360;48.764;9.164;2023-04-16T08:53:02;6.80;;;3.67;;
751;SDS011;360;48.764;9.164;2023-04-16T08:55:31;6.23;;;3.30;;
751;SDS011;360;48.764;9.164;2023-04-16T08:58:03;5.50;;;4.03;;
751;SDS011;360;48.764;9.164;2023-04-16T09:00:31;4.90;;;3.60;;
751;SDS011;360;48.764;9.164;2023-04-16T09:02:59;6.10;;;4.30;;
751;SDS011;360;48.764;9.164;2023-04-16T09:05:28;6.53;;;3.80;;
751;SDS011;360;48.764;9.164;2023-04-16T09:07:55;6.50;;;4.40;;
751;SDS011;360;48.764;9.164;2023-04-16T09:10:22;7.33;;;3.50;;
751;SDS011;360;48.764;9.164;2023-04-16T09:12:51;9.03;;;4.27;;
751;SDS011;360;48.764;9.164;2023-04-16T09:15:21;8.77;;;3.53;;
751;SDS011;360;48.764;9.164;2023-04-16T09:17:49;6.63;;;3.33;;
751;SDS011;360;48.764;9.164;2023-04-16T09:20:16;7.47;;;3.90;;
751;SDS011;360;48.764;9.164;2023-04-16T09:22:45;7.00;;;4.97;;
751;SDS011;360;48.764;9.164;2023-04-16T09:25:12;6.43;;;4.17;;
751;SDS011;360;48.764;9.164;2023-04-16T09:27:40;6.37;;;3.47;;
751;SDS011;360;48.764;9.164;2023-04-16T09:30:20;4.67;;;2.87;;
751;SDS011;360;48.764;9.164;2023-04-16T09:32:47;4.43;;;3.10;;
751;SDS011;360;48.764;9.164;2023-04-16T09:35:15;6.40;;;3.60;;
751;SDS011;360;48.764;9.164;2023-04-16T09:37:42;6.30;;;3.67;;
751;SDS011;360;48.764;9.164;2023-04-16T09:40:11;5.47;;;3.37;;
751;SDS011;360;48.764;9.164;2023-04-16T09:42:41;5.60;;;3.10;;
751;SDS011;360;48.764;9.164;2023-04-16T09:45:08;6.70;;;3.73;;
751;SDS011;360;48.764;9.164;2023-04-16T09:47:39;4.97;;;3.80;;
751;SDS011;360;48.764;9.164;2023-04-16T09:50:06;6.33;;;4.17;;
751;SDS011;360;48.764;9.164;2023-04-16T09:52:35;4.97;;;3.20;;
751;SDS011;360;48.764;9.164;2023-04-16T09:55:03;3.93;;;3.20;;
751;SDS011;360;48.764;9.164;2023-04-16T09:57:31;3.90;;;2.23;;
751;SDS011;360;48.764;9.164;2023-04-16T10:00:00;8.53;;;3.37;;
751;SDS011;360;48.764;9.164;2023-04-16T10:02:27;4.50;;;3.47;;
751;SDS011;360;48.764;9.164;2023-04-16T10:04:54;4.20;;;3.10;;
751;SDS011;360;48.764;9.164;2023-04-16T10:07:22;3.47;;;2.80;;
751;SDS011;360;48.764;9.164;2023-04-16T10:09:53;12.17;;;3.43;;
751;SDS011;360;48.764;9.164;2023-04-16T10:12:21;6.17;;;2.50;;
751;SDS011;360;48.764;9.164;2023-04-16T10:14:49;7.90;;;3.77;;
751;SDS011;360;48.764;9.164;2023-04-16T10:17:16;5.10;;;3.50;;
751;SDS011;360;48.764;9.164;2023-04-16T10:19:44;4.57;;;2.80;;
751;SDS011;360;48.764;9.164;2023-04-16T10:22:11;5.27;;;4.40;;
751;SDS011;360;48.764;9.164;2023-04-16T10:24:38;5.67;;;3.83;;
751;SDS011;360;48.764;9.164;2023-04-16T10:27:06;3.87;;;2.60;;
751;SDS011;360;48.764;9.164;2023-04-16T10:29:34;6.50;;;4.03;;
751;SDS011;360;48.764;9.164;2023-04-16T10:32:02;5.80;;;3.60;;
751;SDS011;360;48.764;9.164;2023-04-16T10:34:30;4.40;;;3.00;;
751;SDS011;360;48.764;9.164;2023-04-16T10:36:57;6.90;;;4.90;;
751;SDS011;360;48.764;9.164;2023-04-16T10:39:26;7.50;;;3.70;;
751;SDS011;360;48.764;9.164;2023-04-16T10:42:05;5.30;;;3.13;;
751;SDS011;360;48.764;9.164;2023-04-16T10:44:32;6.47;;;3.33;;
751;SDS011;360;48.764;9.164;2023-04-16T10:47:00;8.00;;;2.80;;
751;SDS011;360;48.764;9.164;2023-04-16T10:49:28;4.00;;;3.20;;
751;SDS011;360;48.764;9.164;2023-04-16T10:51:56;6.43;;;2.87;;
751;SDS011;360;48.764;9.164;2023-04-16T10:54:23;3.87;;;2.97;;
751;SDS011;360;48.764;9.164;2023-04-16T10:56:51;5.30;;;3.43;;
751;SDS011;360;48.764;9.164;2023-04-16T10:59:19;6.00;;;3.17;;
751;SDS011;360;48.764;9.164;2023-04-16T11:01:47;4.20;;;3.00;;
751;SDS011;360;48.764;9.164;2023-04-16T11:04:35;8.50;;;3.77;;
751;SDS011;360;48.764;9.164;2023-04-16T11:07:03;9.27;;;4.00;;
751;SDS011;360;48.764;9.164;2023-04-16T11:12:14;6.73;;;3.57;;
751;SDS011;360;48.764;9.164;2023-04-16T11:14:43;8.23;;;2.37;;
751;SDS011;360;48.764;9.164;2023-04-16T11:17:12;4.30;;;3.03;;
751;SDS011;360;48.764;9.164;2023-04-16T11:19:41;3.57;;;2.13;;
751;SDS011;360;48.764;9.164;2023-04-16T11:22:10;7.10;;;3.93;;
751;SDS011;360;48.764;9.164;2023-04-16T11:24:37;3.70;;;2.43;;
751;SDS011;360;48.764;9.164;2023-04-16T11:27:05;3.43;;;3.13;;
751;SDS011;360;48.764;9.164;2023-04-16T11:29:32;3.87;;;2.27;;
751;SDS011;360;48.764;9.164;2023-04-16T11:32:00;2.20;;;2.00;;
751;SDS011;360;48.764;9.164;2023-04-16T11:34:27;4.53;;;2.67;;
751;SDS011;360;48.764;9.164;2023-04-16T11:36:55;4.53;;;3.50;;
751;SDS011;360;48.764;9.164;2023-04-16T11:39:23;3.40;;;1.97;;
751;SDS011;360;48.764;9.164;2023-04-16T11:41:50;3.77;;;3.33;;
751;SDS011;360;48.764;9.164;2023-04-16T11:44:21;4.03;;;2.00;;
751;SDS011;360;48.764;9.164;2023-04-16T11:46:48;3.27;;;2.10;;
751;SDS011;360;48.764;9.164;2023-04-16T11:49:16;3.40;;;2.57;;
751;SDS011;360;48.764;9.164;2023-04-16T11:51:43;2.57;;;2.33;;
751;SDS011;360;48.764;9.164;2023-04-16T11:54:18;3.90;;;2.07;;
751;SDS011;360;48.764;9.164;2023-04-16T11:56:46;2.33;;;1.50;;
751;SDS011;360;48.764;9.164;2023-04-16T11:59:14;2.50;;;1.63;;
751;SDS011;360;48.764;9.164;2023-04-16T12:01:44;3.90;;;2.10;;
751;SDS011;360;48.764;9.164;2023-04-16T12:04:12;3.30;;;1.77;;
751;SDS011;360;48.764;9.164;2023-04-16T12:06:39;3.83;;;2.43;;
751;SDS011;360;48.764;9.164;2023-04-16T12:09:23;4.17;;;2.03;;
751;SDS011;360;48.764;9.164;2023-04-16T12:11:51;1.53;;;1.27;;
751;SDS011;360;48.764;9.164;2023-04-16T12:14:18;2.30;;;1.27;;
751;SDS011;360;48.764;9.164;2023-04-16T12:16:45;2.83;;;1.63;;
751;SDS011;360;48.764;9.164;2023-04-16T12:19:12;3.27;;;1.60;;
751;SDS011;360;48.764;9.164;2023-04-16T12:21:40;1.73;;;1.20;;
751;SDS011;360;48.764;9.164;2023-04-16T12:24:08;1.53;;;1.20;;
751;SDS011;360;48.764;9.164;2023-04-16T12:26:41;2.30;;;2.10;;
751;SDS011;360;48.764;9.164;2023-04-16T12:29:19;2.23;;;1.50;;
751;SDS011;360;48.764;9.164;2023-04-16T12:31:46;2.30;;;1.50;;
751;SDS011;360;48.764;9.164;2023-04-16T12:34:14;1.00;;;0.80;;
751;SDS011;360;48.764;9.164;2023-04-16T12:36:42;2.07;;;1.43;;
751;SDS011;360;48.764;9.164;2023-04-16T12:39:10;5.20;;;2.43;;
751;SDS011;360;48.764;9.164;2023-04-16T12:41:38;2.57;;;1.50;;
751;SDS011;360;48.764;9.164;2023-04-16T12:44:07;1.70;;;1.40;;
751;SDS011;360;48.764;9.164;2023-04-16T12:46:37;1.43;;;1.07;;
751;SDS011;360;48.764;9.164;2023-04-16T12:49:04;2.70;;;1.57;;
751;SDS011;360;48.764;9.164;2023-04-16T12:51:31;1.80;;;1.27;;
751;SDS011;360;48.764;9.164;2023-04-16T12:53:58;4.10;;;2.67;;
751;SDS011;360;48.764;9.164;2023-04-16T12:56:26;1.43;;;1.20;;
751;SDS011;360;48.764;9.164;2023-04-16T12:58:53;1.53;;;1.37;;
751;SDS011;360;48.764;9.164;2023-04-16T13:01:22;3.07;;;1.33;;
751;SDS011;360;48.764;9.164;2023-04-16T13:03:49;1.27;;;1.07;;
751;SDS011;360;48.764;9.164;2023-04-16T13:06:16;3.17;;;1.40;;
751;SDS011;360;48.764;9.164;2023-04-16T13:08:43;2.13;;;2.03;;
751;SDS011;360;48.764;9.164;2023-04-16T13:11:11;6.03;;;1.90;;
751;SDS011;360;48.764;9.164;2023-04-16T13:13:38;5.50;;;1.40;;
751;SDS011;360;48.764;9.164;2023-04-16T13:16:05;2.40;;;1.80;;
751;SDS011;360;48.764;9.164;2023-04-16T13:18:34;2.93;;;2.37;;
751;SDS011;360;48.764;9.164;2023-04-16T13:21:02;2.37;;;1.63;;
751;SDS011;360;48.764;9.164;2023-04-16T13:23:29;4.10;;;2.30;;
751;SDS011;360;48.764;9.164;2023-04-16T13:25:56;4.47;;;2.60;;
751;SDS011;360;48.764;9.164;2023-04-16T13:28:23;3.97;;;2.53;;
751;SDS011;360;48.764;9.164;2023-04-16T13:30:51;2.17;;;1.60;;
751;SDS011;360;48.764;9.164;2023-04-16T13:33:18;2.47;;;1.90;;
751;SDS011;360;48.764;9.164;2023-04-16T13:35:47;2.13;;;1.57;;
751;SDS011;360;48.764;9.164;2023-04-16T13:38:14;1.53;;;1.00;;
751;SDS011;360;48.764;9.164;2023-04-16T13:40:41;2.43;;;1.70;;
751;SDS011;360;48.764;9.164;2023-04-16T13:43:08;2.07;;;1.47;;
751;SDS011;360;48.764;9.164;2023-04-16T13:45:36;1.83;;;1.23;;
751;SDS011;360;48.764;9.164;2023-04-16T13:48:03;2.60;;;2.00;;
751;SDS011;360;48.764;9.164;2023-04-16T13:50:31;2.20;;;1.30;;
751;SDS011;360;48.764;9.164;2023-04-16T13:53:00;4.17;;;2.97;;
751;SDS011;360;48.764;9.164;2023-04-16T13:55:29;1.27;;;1.00;;
751;SDS011;360;48.764;9.164;2023-04-16T13:57:56;2.40;;;1.47;;
751;SDS011;360;48.764;9.164;2023-04-16T14:00:24;2.53;;;1.97;;
751;SDS011;360;48.764;9.164;2023-04-16T14:02:51;2.20;;;1.50;;
751;SDS011;360;48.764;9.164;2023-04-16T14:05:18;4.10;;;1.50;;
751;SDS011;360;48.764;9.164;2023-04-16T14:07:47;4.33;;;2.90;;
751;SDS011;360;48.764;9.164;2023-04-16T14:10:15;6.10;;;2.00;;
751;SDS011;360;48.764;9.164;2023-04-16T14:12:42;3.77;;;2.80;;
751;SDS011;360;48.764;9.164;2023-04-16T14:15:10;4.43;;;2.37;;
751;SDS011;360;48.764;9.164;2023-04-16T14:17:38;1.70;;;0.93;;
751;SDS011;360;48.764;9.164;2023-04-16T14:20:07;3.93;;;2.63;;
751;SDS011;360;48.764;9.164;2023-04-16T14:22:34;2.40;;;1.73;;
751;SDS011;360;48.764;9.164;2023-04-16T14:25:01;2.10;;;1.40;;
751;SDS011;360;48.764;9.164;2023-04-16T14:27:30;3.13;;;2.03;;
751;SDS011;360;48.764;9.164;2023-04-16T14:29:58;3.50;;;2.00;;
751;SDS011;360;48.764;9.164;2023-04-16T14:32:25;2.77;;;2.40;;
751;SDS011;360;48.764;9.164;2023-04-16T14:34:52;3.90;;;2.43;;
751;SDS011;360;48.764;9.164;2023-04-16T14:37:19;5.43;;;3.03;;
751;SDS011;360;48.764;9.164;2023-04-16T14:39:46;3.33;;;1.60;;
751;SDS011;360;48.764;9.164;2023-04-16T14:42:13;4.13;;;2.40;;
751;SDS011;360;48.764;9.164;2023-04-16T14:44:42;2.73;;;2.03;;
751;SDS011;360;48.764;9.164;2023-04-16T14:47:09;7.20;;;2.67;;
751;SDS011;360;48.764;9.164;2023-04-16T14:49:36;3.63;;;2.30;;
751;SDS011;360;48.764;9.164;2023-04-16T14:52:04;3.90;;;2.37;;
751;SDS011;360;48.764;9.164;2023-04-16T14:54:31;6.33;;;2.73;;
751;SDS011;360;48.764;9.164;2023-04-16T14:56:58;6.63;;;3.37;;
751;SDS011;360;48.764;9.164;2023-04-16T14:59:25;3.60;;;2.33;;
751;SDS011;360;48.764;9.164;2023-04-16T15:01:55;3.70;;;2.80;;
751;SDS011;360;48.764;9.164;2023-04-16T15:04:22;4.97;;;3.60;;
751;SDS011;360;48.764;9.164;2023-04-16T15:06:50;4.83;;;4.20;;
751;SDS011;360;48.764;9.164;2023-04-16T15:09:17;6.23;;;2.53;;
751;SDS011;360;48.764;9.164;2023-04-16T15:11:44;3.67;;;2.33;;
751;SDS011;360;48.764;9.164;2023-04-16T15:14:11;6.50;;;3.80;;
751;SDS011;360;48.764;9.164;2023-04-16T15:16:38;4.67;;;3.20;;
751;SDS011;360;48.764;9.164;2023-04-16T15:19:07;3.47;;;2.90;;
751;SDS011;360;48.764;9.164;2023-04-16T15:21:34;6.53;;;3.77;;
751;SDS011;360;48.764;9.164;2023-04-16T15:24:01;6.13;;;3.53;;
751;SDS011;360;48.764;9.164;2023-04-16T15:26:28;9.37;;;5.13;;
751;SDS011;360;48.764;9.164;2023-04-16T15:28:55;3.87;;;2.93;;
751;SDS011;360;48.764;9.164;2023-04-16T15:31:22;5.17;;;3.37;;
751;SDS011;360;48.764;9.164;2023-04-16T15:33:50;8.50;;;5.00;;
751;SDS011;360;48.764;9.164;2023-04-16T15:36:19;6.50;;;3.30;;
751;SDS011;360;48.764;9.164;2023-04-16T15:38:46;6.20;;;3.27;;
751;SDS011;360;48.764;9.164;2023-04-16T15:41:13;6.20;;;3.77;;
751;SDS011;360;48.764;9.164;2023-04-16T15:43:40;8.30;;;4.77;;
751;SDS011;360;48.764;9.164;2023-04-16T15:46:08;5.43;;;3.60;;
751;SDS011;360;48.764;9.164;2023-04-16T15:48:35;6.57;;;2.80;;
751;SDS011;360;48.764;9.164;2023-04-16T15:51:02;4.50;;;3.10;;